Time;durP1;ratioP1;P1;durP2;ratioP2;P2;SDS_P1;SDS_P2;PMS_P1;PMS_P2;Temp;Humidity;BMP_temperature;BMP_pressure;BME280_temperature;BME280_humidity;BME280_pressure;Samples;Min_cycle;Max_cycle;Signal;HPM_P1;HPM_P2
2022/12/27 00:01:15;;;;;;;1.80;0.93;;;;;;;6.09;100.00;152926.53;5006566;28;20532;-77
2022/12/27 00:04:01;;;;;;;1.67;0.93;;;;;;;6.02;100.00;152908.50;4981281;28;20460;-77
2022/12/27 00:06:46;;;;;;;2.80;1.10;;;;;;;5.97;100.00;152895.59;5000383;28;20452;-77
2022/12/27 00:09:32;;;;;;;1.47;1.10;;;;;;;5.96;100.00;152891.69;4992539;28;20517;-77
2022/12/27 00:12:17;;;;;;;1.53;1.07;;;;;;;5.87;100.00;152869.81;4992061;28;20428;-76
2022/12/27 00:15:05;;;;;;;1.70;1.10;;;;;;;5.87;100.00;152868.50;4995935;28;20551;-77
2022/12/27 00:17:51;;;;;;;2.67;1.27;;;;;;;5.76;100.00;152841.38;4992891;28;20508;-77
2022/12/27 00:20:36;;;;;;;1.73;1.37;;;;;;;5.68;100.00;152819.44;4993720;28;20461;-77
2022/12/27 00:23:21;;;;;;;2.40;1.00;;;;;;;5.69;100.00;152823.34;4999790;28;20452;-77
2022/12/27 00:26:08;;;;;;;1.57;1.13;;;;;;;5.67;100.00;152816.84;4980163;28;20465;-76
2022/12/27 00:28:53;;;;;;;4.10;1.37;;;;;;;5.58;100.00;152794.97;4988146;28;20527;-76
2022/12/27 00:31:40;;;;;;;1.57;1.10;;;;;;;5.59;100.00;152796.25;4995572;28;20456;-76
2022/12/27 00:34:25;;;;;;;3.33;1.47;;;;;;;5.58;100.00;152793.66;4996996;28;20497;-78
2022/12/27 00:37:11;;;;;;;2.47;1.00;;;;;;;5.51;100.00;152778.19;4995642;28;20436;-78
2022/12/27 00:39:56;;;;;;;2.23;1.20;;;;;;;5.50;100.00;152775.63;4976083;28;20456;-78
2022/12/27 00:42:42;;;;;;;2.00;1.73;;;;;;;5.48;100.00;152769.19;4997150;28;20417;-78
2022/12/27 00:45:27;;;;;;;2.67;1.20;;;;;;;5.44;100.00;152758.84;4983696;28;20456;-78
2022/12/27 00:48:14;;;;;;;1.33;0.87;;;;;;;5.42;100.00;152753.69;4989080;28;20446;-78
2022/12/27 00:51:00;;;;;;;1.90;1.30;;;;;;;5.35;100.00;152735.63;4994445;28;20472;-78
2022/12/27 00:53:46;;;;;;;3.03;1.20;;;;;;;5.28;100.00;152717.59;5002957;28;20797;-77
2022/12/27 00:56:32;;;;;;;2.60;1.40;;;;;;;5.22;100.00;152702.09;4996235;28;21027;-78
2022/12/27 00:59:17;;;;;;;2.57;1.23;;;;;;;5.19;100.00;152694.41;4999248;28;20475;-78
2022/12/27 01:02:02;;;;;;;2.10;1.00;;;;;;;5.18;100.00;152691.81;4993465;28;20520;-77
2022/12/27 01:04:49;;;;;;;3.40;1.40;;;;;;;5.20;100.00;152698.25;4988206;28;20527;-78
2022/12/27 01:07:34;;;;;;;1.10;0.80;;;;;;;5.17;100.00;152689.22;4988460;28;20433;-77
2022/12/27 01:10:19;;;;;;;2.53;1.53;;;;;;;5.12;100.00;152676.31;4986447;28;20936;-77
2022/12/27 01:13:05;;;;;;;2.87;1.60;;;;;;;5.03;100.00;152654.41;4993317;28;20492;-78
2022/12/27 01:15:50;;;;;;;2.63;1.00;;;;;;;5.03;100.00;152654.41;5004143;28;20460;-77
2022/12/27 01:18:36;;;;;;;4.60;1.20;;;;;;;5.03;100.00;152653.16;5004726;28;20496;-77
2022/12/27 01:21:24;;;;;;;2.17;1.40;;;;;;;5.02;100.00;152651.84;4997510;28;20463;-77
2022/12/27 01:24:09;;;;;;;2.70;1.60;;;;;;;4.99;100.00;152642.81;4983843;28;20821;-77
2022/12/27 01:26:55;;;;;;;1.63;1.00;;;;;;;4.97;100.00;152637.69;5000591;28;20463;-78
2022/12/27 01:29:40;;;;;;;2.00;1.13;;;;;;;4.90;100.00;152622.19;4992346;28;20805;-77
2022/12/27 01:32:25;;;;;;;2.70;1.10;;;;;;;4.86;100.00;152611.91;4992524;28;20433;-77
2022/12/27 01:35:11;;;;;;;2.17;1.10;;;;;;;4.81;100.00;152599.03;4988209;28;20444;-77
2022/12/27 01:37:57;;;;;;;2.80;1.03;;;;;;;4.76;100.00;152586.16;4986620;28;20975;-77
2022/12/27 01:40:43;;;;;;;1.87;1.00;;;;;;;4.67;100.00;152562.94;4981027;28;20475;-77
2022/12/27 01:43:36;;;;;;;1.53;0.90;;;;;;;4.57;100.00;152537.19;4992082;28;20479;-77
2022/12/27 01:46:22;;;;;;;1.70;0.97;;;;;;;4.56;100.00;152534.59;4990601;28;20537;-77
2022/12/27 01:49:08;;;;;;;2.77;1.10;;;;;;;4.55;100.00;152532.03;4995957;28;20426;-77
2022/12/27 01:51:53;;;;;;;4.90;1.10;;;;;;;4.54;100.00;152528.13;4981969;28;20466;-77
2022/12/27 01:54:40;;;;;;;1.70;1.00;;;;;;;4.49;100.00;152516.56;4999300;28;20447;-77
2022/12/27 01:57:26;;;;;;;1.30;0.93;;;;;;;4.44;100.00;152502.38;5013853;28;20532;-77
2022/12/27 02:00:12;;;;;;;2.33;0.90;;;;;;;4.39;100.00;152490.81;5004613;28;20479;-77
2022/12/27 02:02:57;;;;;;;1.27;0.90;;;;;;;4.38;100.00;152488.22;4986765;28;20798;-77
2022/12/27 02:05:42;;;;;;;1.80;1.00;;;;;;;4.32;100.00;152472.75;4995466;28;20456;-77
2022/12/27 02:08:39;;;;;;;2.50;0.97;;;;;;;4.23;100.00;152449.59;4991281;28;20567;-77
2022/12/27 02:14:32;;;;;;;1.93;1.17;;;;;;;4.11;100.00;152418.66;4997487;28;20497;-77
2022/12/27 02:17:19;;;;;;;4.70;1.10;;;;;;;4.06;100.00;152405.78;4984175;28;20452;-77
2022/12/27 02:20:09;;;;;;;1.10;0.70;;;;;;;4.03;100.00;152398.03;5004157;28;20770;-77
2022/12/27 02:26:50;;;;;;;1.50;1.20;;;;;;;3.84;100.00;152349.16;4995651;28;20457;-78
2022/12/27 02:29:44;;;;;;;2.40;1.40;;;;;;;3.82;100.00;152343.97;4988273;28;20456;-77
2022/12/27 02:32:31;;;;;;;2.67;1.20;;;;;;;3.76;100.00;152329.78;4973420;28;20493;-77
2022/12/27 02:35:20;;;;;;;1.37;0.93;;;;;;;3.73;100.00;152320.81;4963958;28;20908;-77
2022/12/27 02:38:10;;;;;;;2.03;0.80;;;;;;;3.66;100.00;152304.06;4986557;28;20584;-77
2022/12/27 02:53:33;;;;;;;2.10;0.70;;;;;;;3.51;100.00;152266.75;4988323;28;20545;-77
2022/12/27 03:03:19;;;;;;;1.50;0.90;;;;;;;3.45;100.00;152251.28;4966690;28;20469;-77
2022/12/27 03:15:58;;;;;;;1.57;1.00;;;;;;;3.37;100.00;152230.69;4957212;28;20461;-77
2022/12/27 03:19:02;;;;;;;1.83;1.23;;;;;;;3.31;100.00;152215.22;4977284;28;20584;-77
2022/12/27 03:40:38;;;;;;;2.07;1.07;;;;;;;3.19;100.00;152183.06;5002294;28;20500;-77
2022/12/27 03:43:23;;;;;;;2.77;1.20;;;;;;;3.16;100.00;152176.66;4996899;28;20495;-77
2022/12/27 03:46:34;;;;;;;1.73;1.17;;;;;;;3.12;100.00;152166.38;4988882;28;20547;-77
2022/12/27 03:49:25;;;;;;;2.90;0.97;;;;;;;3.08;100.00;152157.34;4992126;28;20486;-77
2022/12/27 03:52:13;;;;;;;1.47;1.17;;;;;;;3.08;100.00;152157.34;4995122;28;20504;-77
2022/12/27 03:54:59;;;;;;;1.67;1.13;;;;;;;3.07;100.00;152153.50;4986971;28;20912;-77
2022/12/27 03:57:45;;;;;;;1.20;1.10;;;;;;;3.07;100.00;152153.50;4975970;28;20449;-77
2022/12/27 04:00:30;;;;;;;1.50;1.07;;;;;;;3.08;100.00;152157.34;4992574;28;20428;-77
2022/12/27 04:03:15;;;;;;;1.70;1.13;;;;;;;3.08;100.00;152157.34;5002527;28;20413;-77
2022/12/27 04:06:02;;;;;;;1.57;1.03;;;;;;;3.08;100.00;152156.06;4985095;28;20440;-77
2022/12/27 04:36:17;;;;;;;1.73;1.17;;;;;;;2.89;100.00;152107.16;4993367;28;20451;-77
2022/12/27 04:39:04;;;;;;;1.80;1.23;;;;;;;2.86;100.00;152099.47;5004086;28;20459;-77
2022/12/27 04:57:23;;;;;;;2.07;1.07;;;;;;;2.81;100.00;152087.84;4999115;28;20547;-77
2022/12/27 05:03:15;;;;;;;2.33;1.80;;;;;;;2.77;100.00;152076.28;5001749;28;20532;-77
2022/12/27 05:06:01;;;;;;;1.70;1.37;;;;;;;2.75;100.00;152071.16;5012407;28;20435;-77
2022/12/27 05:14:54;;;;;;;2.30;1.43;;;;;;;2.69;100.00;152057.00;4990734;28;20476;-77
2022/12/27 05:17:40;;;;;;;2.27;1.60;;;;;;;2.66;100.00;152048.00;4991055;28;20406;-78
2022/12/27 05:20:25;;;;;;;2.00;1.50;;;;;;;2.65;100.00;152045.44;4994915;28;21034;-77
2022/12/27 05:26:19;;;;;;;1.80;1.50;;;;;;;2.61;100.00;152035.13;4996218;28;20472;-77
2022/12/27 05:29:06;;;;;;;2.90;1.37;;;;;;;2.60;100.00;152032.53;4992984;28;20444;-77
2022/12/27 05:31:52;;;;;;;1.73;1.40;;;;;;;2.61;100.00;152035.13;4981866;28;20457;-78
2022/12/27 05:34:37;;;;;;;2.50;1.47;;;;;;;2.59;100.00;152030.00;4984352;28;20492;-78
2022/12/27 05:37:22;;;;;;;2.10;1.70;;;;;;;2.56;100.00;152022.28;4988987;28;20447;-77
2022/12/27 05:40:10;;;;;;;2.80;1.50;;;;;;;2.53;100.00;152014.56;4990061;28;20464;-77
2022/12/27 05:42:55;;;;;;;3.07;1.80;;;;;;;2.55;100.00;152019.69;4997479;28;20420;-78
2022/12/27 05:45:41;;;;;;;4.43;1.50;;;;;;;2.49;100.00;152004.28;4986261;28;20448;-78
2022/12/27 05:48:26;;;;;;;2.27;1.60;;;;;;;2.47;100.00;152000.41;4982196;28;21096;-77
2022/12/27 05:51:14;;;;;;;1.70;1.43;;;;;;;2.44;100.00;151993.97;4988415;28;21086;-77
2022/12/27 05:53:59;;;;;;;2.00;1.30;;;;;;;2.38;100.00;151978.53;4972745;28;20521;-77
2022/12/27 05:56:44;;;;;;;3.00;1.60;;;;;;;2.32;100.00;151961.84;4994103;28;20453;-77
2022/12/27 05:59:30;;;;;;;3.40;2.10;;;;;;;2.32;100.00;151963.13;4989276;28;20473;-77
2022/12/27 06:02:16;;;;;;;2.03;1.40;;;;;;;2.28;100.00;151951.53;4983940;28;20460;-77
2022/12/27 06:05:02;;;;;;;3.03;1.57;;;;;;;2.26;100.00;151947.69;4983278;28;20456;-77
2022/12/27 06:07:48;;;;;;;2.30;1.87;;;;;;;2.25;100.00;151945.09;4992210;28;20963;-77
2022/12/27 06:10:33;;;;;;;3.30;1.77;;;;;;;2.26;100.00;151947.69;4983845;28;20521;-77
2022/12/27 06:13:19;;;;;;;2.57;1.53;;;;;;;2.22;100.00;151937.44;4982474;28;20451;-77
2022/12/27 06:16:05;;;;;;;3.23;1.53;;;;;;;2.20;100.00;151930.94;4990701;28;20461;-77
2022/12/27 06:18:52;;;;;;;1.87;1.67;;;;;;;2.22;100.00;151937.44;4990170;28;20536;-77
2022/12/27 06:21:37;;;;;;;3.53;1.80;;;;;;;2.20;100.00;151932.25;4986239;28;21123;-77
2022/12/27 06:24:22;;;;;;;1.77;1.37;;;;;;;2.18;100.00;151927.13;4984484;28;20444;-77
2022/12/27 06:27:08;;;;;;;3.70;1.80;;;;;;;2.16;100.00;151920.69;4993418;28;20876;-77
2022/12/27 06:29:53;;;;;;;1.80;1.53;;;;;;;2.16;100.00;151921.97;4979381;28;20433;-77
2022/12/27 06:32:39;;;;;;;3.43;2.20;;;;;;;2.13;100.00;151914.25;4989467;28;20480;-77
2022/12/27 06:35:26;;;;;;;5.53;2.07;;;;;;;2.10;100.00;151905.25;4970222;28;20442;-77
2022/12/27 06:38:11;;;;;;;1.73;1.47;;;;;;;2.12;100.00;151911.69;4978491;28;20447;-77
2022/12/27 06:41:00;;;;;;;3.00;1.63;;;;;;;2.06;100.00;151896.28;4967320;28;20482;-77
2022/12/27 06:43:49;;;;;;;2.00;1.40;;;;;;;2.01;100.00;151883.44;4965857;28;20482;-77
2022/12/27 06:46:36;;;;;;;2.23;1.50;;;;;;;1.96;100.00;151870.53;4954386;29;20435;-77
2022/12/27 06:49:29;;;;;;;2.13;1.50;;;;;;;1.94;100.00;151865.41;4965161;28;20808;-77
2022/12/27 06:52:15;;;;;;;2.60;1.77;;;;;;;1.93;100.00;151862.88;4971403;28;20469;-77
2022/12/27 06:55:00;;;;;;;3.00;2.07;;;;;;;1.93;100.00;151861.56;4978310;28;20775;-77
2022/12/27 06:57:46;;;;;;;2.77;1.60;;;;;;;1.89;100.00;151852.56;4970119;28;20645;-77
2022/12/27 07:00:31;;;;;;;2.57;1.60;;;;;;;1.86;100.00;151844.84;4961890;28;20484;-77
2022/12/27 07:03:17;;;;;;;2.70;1.47;;;;;;;1.84;100.00;151841.00;4967358;28;20566;-77
2022/12/27 07:06:02;;;;;;;2.97;1.60;;;;;;;1.84;100.00;151839.72;4970732;28;20965;-77
2022/12/27 07:08:50;;;;;;;2.00;1.50;;;;;;;1.90;100.00;151855.16;4967736;28;20782;-78
2022/12/27 07:11:36;;;;;;;2.47;1.67;;;;;;;1.85;100.00;151842.28;4972613;28;20485;-77
2022/12/27 07:14:22;;;;;;;1.70;1.60;;;;;;;1.85;100.00;151842.28;4970707;28;20475;-77
2022/12/27 07:17:07;;;;;;;3.07;1.90;;;;;;;1.89;100.00;151851.25;4967043;28;20548;-88
2022/12/27 07:19:53;;;;;;;3.70;1.83;;;;;;;1.90;100.00;151853.84;4966688;28;20480;-88
2022/12/27 07:22:38;;;;;;;3.87;1.50;;;;;;;1.88;100.00;151849.97;4985944;28;21824;-88
2022/12/27 07:25:25;;;;;;;1.73;1.57;;;;;;;1.89;100.00;151852.56;4997695;28;20477;-88
2022/12/27 07:28:10;;;;;;;2.10;1.60;;;;;;;1.92;100.00;151860.28;4973998;28;20956;-88
2022/12/27 07:30:56;;;;;;;2.50;1.43;;;;;;;1.95;100.00;151868.00;4970394;28;20457;-88
2022/12/27 07:33:42;;;;;;;1.73;1.23;;;;;;;1.97;100.00;151873.13;4975126;28;20555;-89
2022/12/27 07:36:30;;;;;;;1.73;1.27;;;;;;;2.02;100.00;151885.97;4995026;28;20932;-89
2022/12/27 07:39:16;;;;;;;2.50;1.63;;;;;;;2.05;100.00;151893.69;4990303;28;20515;-89
2022/12/27 07:42:03;;;;;;;2.03;1.70;;;;;;;2.11;100.00;151909.13;4993687;28;20519;-88
2022/12/27 07:44:55;;;;;;;4.30;1.67;;;;;;;2.19;100.00;151929.72;4994455;28;20429;-89
2022/12/27 07:47:41;;;;;;;2.30;2.00;;;;;;;2.26;100.00;151947.69;4987913;28;20444;-89
2022/12/27 07:50:26;;;;;;;3.00;2.10;;;;;;;2.36;100.00;151972.09;4990061;28;20460;-89
2022/12/27 07:53:12;;;;;;;7.40;1.70;;;;;;;2.38;100.00;151977.28;4988636;28;20487;-89
2022/12/27 07:55:57;;;;;;;2.23;1.70;;;;;;;2.40;100.00;151983.72;4990969;28;20453;-91
2022/12/27 07:58:46;;;;;;;3.00;1.73;;;;;;;2.45;100.00;151996.56;5005381;28;21349;-88
2022/12/27 08:02:02;;;;;;;3.30;1.70;;;;;;;2.48;100.00;152003.00;4999198;28;20966;-88
2022/12/27 08:04:46;;;;;;;2.47;1.80;;;;;;;2.54;100.00;152017.16;4990686;28;20441;-87
2022/12/27 08:07:31;;;;;;;3.67;2.80;;;;;;;2.60;100.00;152032.53;5006666;28;20436;-87
2022/12/27 08:10:17;;;;;;;5.93;5.20;;;;;;;2.64;100.00;152042.84;4991891;28;20449;-87
2022/12/27 08:13:02;;;;;;;6.40;4.97;;;;;;;2.70;100.00;152058.31;5000048;28;20449;-87
2022/12/27 08:15:51;;;;;;;8.63;5.80;;;;;;;2.77;100.00;152077.59;4990540;28;20536;-86
2022/12/27 08:18:37;;;;;;;8.70;6.50;;;;;;;2.83;100.00;152091.75;4998008;28;20768;-86
2022/12/27 08:21:23;;;;;;;10.80;7.80;;;;;;;2.90;100.00;152111.03;4989158;28;20828;-86
2022/12/27 08:24:12;;;;;;;12.63;8.90;;;;;;;2.96;100.00;152126.50;4973424;28;20402;-86
2022/12/27 08:26:57;;;;;;;11.43;7.97;;;;;;;3.04;100.00;152147.03;4992225;28;20448;-86
2022/12/27 08:29:45;;;;;;;12.60;7.70;;;;;;;3.10;100.00;152161.19;4984966;28;20483;-86
2022/12/27 08:32:31;;;;;;;8.70;6.83;;;;;;;3.12;100.00;152166.38;4989681;28;20444;-86
2022/12/27 08:35:16;;;;;;;12.07;6.13;;;;;;;3.19;100.00;152183.06;4976277;28;20521;-86
2022/12/27 08:38:02;;;;;;;6.80;5.47;;;;;;;3.26;100.00;152202.38;4968950;28;20839;-86
2022/12/27 08:40:48;;;;;;;8.93;5.60;;;;;;;3.32;100.00;152217.81;4964533;28;20484;-85
2022/12/27 08:43:33;;;;;;;6.07;5.33;;;;;;;3.32;100.00;152217.81;4971232;28;20441;-85
2022/12/27 08:46:18;;;;;;;8.20;5.40;;;;;;;3.38;100.00;152233.28;4964892;28;20449;-85
2022/12/27 08:49:06;;;;;;;9.93;6.17;;;;;;;3.37;100.00;152230.69;4963483;28;21001;-85
2022/12/27 08:51:51;;;;;;;13.70;9.17;;;;;;;3.39;100.00;152235.81;4968138;28;20452;-86
2022/12/27 08:54:36;;;;;;;19.70;11.13;;;;;;;3.40;100.00;152238.41;4968626;28;20476;-86
2022/12/27 08:57:22;;;;;;;17.60;11.30;;;;;;;3.44;100.00;152248.69;4969376;28;20933;-86
2022/12/27 09:00:09;;;;;;;13.20;7.37;;;;;;;3.49;100.00;152261.59;4972503;28;20592;-86
2022/12/27 09:02:58;;;;;;;9.87;7.53;;;;;;;3.53;100.00;152271.88;4972212;28;20430;-86
2022/12/27 09:05:45;;;;;;;12.70;6.60;;;;;;;3.55;100.00;152277.03;4966556;28;20649;-86
2022/12/27 09:08:30;;;;;;;12.80;8.23;;;;;;;3.56;100.00;152279.63;4968527;28;20805;-85
2022/12/27 09:11:18;;;;;;;9.80;7.13;;;;;;;3.57;100.00;152282.16;4968133;28;20953;-85
2022/12/27 09:14:04;;;;;;;11.60;5.90;;;;;;;3.63;100.00;152296.31;4966716;28;20534;-85
2022/12/27 09:16:50;;;;;;;10.60;6.70;;;;;;;3.62;100.00;152295.06;4973746;28;20461;-85
2022/12/27 09:19:36;;;;;;;15.43;8.93;;;;;;;3.65;100.00;152302.75;4972307;28;20941;-85
2022/12/27 09:22:22;;;;;;;11.57;6.17;;;;;;;3.67;100.00;152307.94;4971871;28;20422;-85
2022/12/27 09:25:08;;;;;;;4.47;2.90;;;;;;;3.70;100.00;152314.38;4966767;28;20452;-84
2022/12/27 09:27:54;;;;;;;7.07;3.63;;;;;;;3.73;100.00;152320.81;4971632;28;20446;-85
2022/12/27 09:30:39;;;;;;;5.43;3.63;;;;;;;3.72;100.00;152318.22;4980963;28;21029;-85
2022/12/27 09:33:24;;;;;;;4.03;2.97;;;;;;;3.76;100.00;152328.53;4973654;28;20547;-85
2022/12/27 09:36:12;;;;;;;6.03;3.70;;;;;;;3.75;100.00;152325.94;4993964;28;20449;-85
2022/12/27 09:38:59;;;;;;;6.40;4.20;;;;;;;3.76;100.00;152329.78;4984858;28;20417;-85
2022/12/27 09:41:50;;;;;;;4.67;3.30;;;;;;;3.77;100.00;152332.38;4993618;28;20483;-85
2022/12/27 09:44:45;;;;;;;5.07;3.10;;;;;;;3.78;100.00;152333.69;4991220;28;20796;-85
2022/12/27 09:47:33;;;;;;;6.27;4.60;;;;;;;3.79;100.00;152336.22;4986938;28;20452;-84
2022/12/27 09:50:23;;;;;;;10.27;5.50;;;;;;;3.81;100.00;152342.72;4990240;28;20442;-85
2022/12/27 09:53:16;;;;;;;11.10;7.10;;;;;;;3.81;100.00;152342.72;4990551;28;20465;-85
2022/12/27 09:56:02;;;;;;;7.23;5.43;;;;;;;3.85;100.00;152351.69;4986184;28;20445;-85
2022/12/27 09:58:49;;;;;;;5.43;3.97;;;;;;;3.85;100.00;152351.69;4990220;28;20634;-85
2022/12/27 10:01:36;;;;;;;4.90;3.97;;;;;;;3.91;100.00;152367.16;4989410;28;20612;-85
2022/12/27 10:04:21;;;;;;;4.50;3.20;;;;;;;3.96;100.00;152380.03;5005923;28;20428;-85
2022/12/27 10:07:15;;;;;;;6.07;4.43;;;;;;;3.98;100.00;152385.16;4999888;28;20452;-85
2022/12/27 10:10:05;;;;;;;4.17;2.83;;;;;;;4.03;100.00;152399.34;4995471;28;20456;-85
2022/12/27 10:13:06;;;;;;;3.60;2.97;;;;;;;4.02;100.00;152395.50;4989865;28;20906;-85
2022/12/27 10:15:59;;;;;;;4.17;3.07;;;;;;;4.08;100.00;152410.91;4993204;28;20460;-85
2022/12/27 10:18:49;;;;;;;3.73;2.40;;;;;;;4.13;100.00;152423.84;4997878;28;20448;-86
2022/12/27 10:21:37;;;;;;;2.73;2.23;;;;;;;4.24;100.00;152452.13;4995296;28;20473;-85
2022/12/27 10:24:25;;;;;;;4.10;2.53;;;;;;;4.27;100.00;152459.88;4994115;28;20585;-85
2022/12/27 10:27:23;;;;;;;3.30;2.20;;;;;;;4.34;100.00;152477.94;4997192;28;20951;-84
2022/12/27 10:30:14;;;;;;;2.70;2.10;;;;;;;4.35;100.00;152480.47;5006311;28;20439;-85
2022/12/27 10:33:01;;;;;;;3.30;2.13;;;;;;;4.44;100.00;152503.69;4996159;28;20511;-84
2022/12/27 10:35:47;;;;;;;4.63;2.00;;;;;;;4.56;100.00;152533.28;4980766;28;20959;-85
2022/12/27 10:38:33;;;;;;;3.20;2.27;;;;;;;4.57;100.00;152537.19;4991734;28;20432;-85
2022/12/27 10:41:36;;;;;;;3.13;1.83;;;;;;;4.54;100.00;152529.44;4994001;28;20470;-85
2022/12/27 10:44:22;;;;;;;3.00;2.23;;;;;;;4.58;100.00;152538.47;4992070;28;20437;-84
2022/12/27 10:47:09;;;;;;;3.10;2.30;;;;;;;4.64;100.00;152555.19;4991402;28;20448;-85
2022/12/27 10:50:03;;;;;;;4.50;2.97;;;;;;;4.69;100.00;152568.06;4990439;28;20916;-85
2022/12/27 10:52:48;;;;;;;6.50;2.50;;;;;;;4.76;100.00;152586.16;4988890;28;20827;-85
2022/12/27 10:55:36;;;;;;;3.53;2.17;;;;;;;4.85;100.00;152609.31;4994732;28;20452;-84
2022/12/27 10:58:37;;;;;;;2.30;1.73;;;;;;;5.02;98.95;152650.56;4994077;28;20417;-85
2022/12/27 11:01:24;;;;;;;3.87;2.57;;;;;;;4.98;99.88;152640.28;4989204;28;20950;-85
2022/12/27 11:04:17;;;;;;;5.90;3.33;;;;;;;5.02;99.14;152650.56;4991522;28;20451;-85
2022/12/27 11:07:12;;;;;;;3.07;2.00;;;;;;;5.05;98.47;152659.59;4993174;28;20584;-85
2022/12/27 11:10:06;;;;;;;2.80;1.83;;;;;;;5.25;97.13;152711.13;4990792;28;20453;-85
2022/12/27 11:12:57;;;;;;;2.23;1.53;;;;;;;5.22;95.38;152702.09;4993378;28;20786;-88
2022/12/27 11:15:43;;;;;;;3.87;2.07;;;;;;;5.39;94.85;152747.25;4982514;28;20509;-84
2022/12/27 11:18:29;;;;;;;5.50;2.10;;;;;;;5.31;96.00;152725.31;4993870;28;21019;-84
2022/12/27 11:21:18;;;;;;;4.10;3.20;;;;;;;5.27;96.50;152715.03;4990414;28;20488;-85
2022/12/27 11:24:06;;;;;;;4.87;3.10;;;;;;;5.24;97.28;152707.28;4993191;28;20951;-85
2022/12/27 11:26:57;;;;;;;1.80;1.50;;;;;;;5.35;96.24;152735.63;4990806;28;20459;-85
2022/12/27 11:29:44;;;;;;;8.33;2.17;;;;;;;5.30;95.23;152722.72;4997446;28;20544;-85
2022/12/27 11:32:30;;;;;;;2.47;1.40;;;;;;;5.28;95.80;152717.59;5007762;28;20913;-84
2022/12/27 11:35:17;;;;;;;3.20;2.00;;;;;;;5.32;96.62;152727.91;5001871;28;20834;-84
2022/12/27 11:38:04;;;;;;;5.30;1.80;;;;;;;5.34;95.75;152733.06;4990806;28;20465;-85
2022/12/27 11:40:56;;;;;;;2.60;1.50;;;;;;;5.30;95.92;152722.72;4998025;28;20468;-85
2022/12/27 11:43:47;;;;;;;3.50;2.43;;;;;;;5.27;96.24;152715.03;4996748;28;21021;-84
2022/12/27 11:46:38;;;;;;;2.10;1.60;;;;;;;5.29;96.95;152720.19;5005845;28;21016;-85
2022/12/27 11:49:26;;;;;;;3.77;2.40;;;;;;;5.33;97.72;152730.47;4996810;28;20795;-84
2022/12/27 11:52:38;;;;;;;3.53;2.43;;;;;;;5.35;97.09;152735.63;4994525;28;20469;-85
2022/12/27 11:55:57;;;;;;;2.60;2.30;;;;;;;5.39;97.80;152745.94;5007932;28;20475;-85
2022/12/27 11:59:18;;;;;;;2.53;2.20;;;;;;;5.47;96.25;152766.59;5005297;28;20461;-85
2022/12/27 12:02:30;;;;;;;4.00;2.07;;;;;;;5.54;96.32;152785.91;4998495;28;20464;-85
2022/12/27 12:05:40;;;;;;;3.57;2.80;;;;;;;5.62;96.64;152805.25;4993336;28;20518;-85
2022/12/27 12:08:49;;;;;;;4.33;3.50;;;;;;;5.64;96.34;152810.41;4990439;28;20924;-85
2022/12/27 12:11:44;;;;;;;4.27;1.87;;;;;;;5.75;95.27;152837.47;4993642;28;20437;-84
2022/12/27 12:14:50;;;;;;;3.80;2.73;;;;;;;5.87;94.61;152868.50;4994552;28;20444;-85
2022/12/27 12:18:07;;;;;;;4.70;2.03;;;;;;;5.93;94.04;152884.00;4987114;28;20454;-85
2022/12/27 12:21:20;;;;;;;2.03;1.60;;;;;;;5.86;93.71;152865.91;5000124;28;20982;-85
2022/12/27 12:24:25;;;;;;;1.83;1.63;;;;;;;5.84;94.67;152860.72;4990307;28;20452;-84
2022/12/27 12:27:21;;;;;;;2.77;2.00;;;;;;;5.77;95.39;152843.94;4992013;28;20469;-85
2022/12/27 12:30:23;;;;;;;1.83;1.73;;;;;;;5.74;95.88;152836.22;4999697;28;20441;-85
2022/12/27 12:33:31;;;;;;;3.30;2.43;;;;;;;5.68;95.32;152820.75;4989651;28;20552;-84
2022/12/27 12:36:44;;;;;;;3.30;1.93;;;;;;;5.69;95.92;152823.34;4990321;28;20535;-85
2022/12/27 12:39:44;;;;;;;4.60;1.60;;;;;;;5.69;98.17;152823.34;4989567;28;20969;-85
2022/12/27 12:42:36;;;;;;;2.27;1.60;;;;;;;5.70;95.43;152825.88;4989167;28;20468;-85
2022/12/27 12:45:35;;;;;;;2.63;1.70;;;;;;;5.72;95.87;152831.03;4986159;28;20472;-85
2022/12/27 12:48:33;;;;;;;2.90;1.80;;;;;;;5.81;95.18;152854.28;4988517;28;20521;-84
2022/12/27 12:51:36;;;;;;;2.13;1.70;;;;;;;5.87;94.47;152868.50;4990273;28;20796;-84
2022/12/27 12:54:32;;;;;;;4.70;2.30;;;;;;;6.00;95.07;152903.34;4988893;28;20444;-85
2022/12/27 12:57:27;;;;;;;4.67;1.70;;;;;;;6.01;94.95;152905.88;4991191;28;20457;-85
2022/12/27 13:00:30;;;;;;;3.10;1.80;;;;;;;6.03;95.08;152909.78;4987919;28;20457;-85
2022/12/27 13:03:50;;;;;;;2.20;1.60;;;;;;;6.06;94.02;152918.78;4984450;28;20433;-84
2022/12/27 13:07:20;;;;;;;2.53;1.40;;;;;;;6.11;93.94;152930.44;4977219;28;20651;-84
2022/12/27 13:10:40;;;;;;;2.00;1.30;;;;;;;6.12;94.92;152934.28;4992817;28;21127;-84
2022/12/27 13:13:29;;;;;;;2.00;1.60;;;;;;;6.11;93.57;152930.44;4995188;28;20434;-85
2022/12/27 13:16:26;;;;;;;2.37;1.30;;;;;;;6.09;94.00;152926.53;4990646;28;20451;-85
2022/12/27 13:19:22;;;;;;;6.67;2.00;;;;;;;6.11;95.26;152931.72;4991199;28;20468;-84
2022/12/27 13:22:14;;;;;;;9.13;4.00;;;;;;;6.09;95.77;152925.22;4996684;28;20512;-84
2022/12/27 13:25:10;;;;;;;8.37;5.50;;;;;;;6.07;95.20;152920.09;4994439;28;20452;-85
2022/12/27 13:28:05;;;;;;;12.67;6.47;;;;;;;6.05;94.07;152916.25;4990969;28;20429;-85
2022/12/27 13:31:20;;;;;;;11.77;7.20;;;;;;;6.05;94.20;152914.94;4991481;28;20461;-85
2022/12/27 13:37:42;;;;;;;2.37;1.60;;;;;;;5.95;94.93;152890.44;4999452;28;20444;-85
2022/12/27 13:40:49;;;;;;;4.10;1.70;;;;;;;5.94;94.41;152886.56;4981858;28;20772;-85
2022/12/27 13:44:10;;;;;;;2.63;1.30;;;;;;;5.87;94.04;152868.50;4994755;28;20807;-84
2022/12/27 13:47:28;;;;;;;3.50;2.00;;;;;;;5.87;94.78;152869.81;4948640;29;20527;-85
2022/12/27 13:50:37;;;;;;;6.33;2.07;;;;;;;5.81;94.36;152852.97;4993660;28;20432;-84
2022/12/27 13:53:56;;;;;;;2.37;1.60;;;;;;;5.79;95.29;152847.81;4991597;28;20440;-84
2022/12/27 13:56:46;;;;;;;4.63;1.93;;;;;;;5.76;94.93;152841.38;4983383;28;20457;-84
2022/12/27 14:00:04;;;;;;;6.50;4.63;;;;;;;5.77;95.86;152843.94;4994933;28;20532;-84
2022/12/27 14:03:11;;;;;;;8.43;5.87;;;;;;;5.75;95.91;152837.47;4990262;28;20979;-84
2022/12/27 14:06:16;;;;;;;3.53;3.10;;;;;;;5.73;95.93;152832.34;5003393;28;20498;-84
2022/12/27 14:09:37;;;;;;;4.47;3.63;;;;;;;5.71;95.85;152828.47;4995752;28;20453;-85
2022/12/27 14:12:40;;;;;;;7.70;6.20;;;;;;;5.75;94.77;152838.78;4988205;28;20445;-84
2022/12/27 14:15:50;;;;;;;5.50;4.20;;;;;;;5.80;94.89;152851.66;4983597;28;20967;-85
2022/12/27 14:18:42;;;;;;;4.70;3.30;;;;;;;5.79;94.39;152849.13;4999888;28;20424;-84
2022/12/27 14:21:42;;;;;;;5.83;4.23;;;;;;;5.78;94.10;152846.53;4996313;28;20481;-85
2022/12/27 14:24:46;;;;;;;4.03;3.10;;;;;;;5.74;95.38;152834.94;4988898;28;20432;-84
2022/12/27 14:28:03;;;;;;;3.63;1.80;;;;;;;5.75;94.93;152837.47;5004465;28;20437;-84
2022/12/27 14:31:12;;;;;;;2.20;1.30;;;;;;;5.69;95.26;152823.34;4993754;28;20453;-85
2022/12/27 14:34:15;;;;;;;3.87;2.30;;;;;;;5.70;93.04;152825.88;4992470;28;20472;-85
2022/12/27 14:37:44;;;;;;;1.50;1.20;;;;;;;5.68;94.61;152820.75;4990431;28;20780;-84
2022/12/27 14:41:03;;;;;;;5.63;1.03;;;;;;;5.64;93.67;152810.41;4930048;29;20464;-84
2022/12/27 14:44:15;;;;;;;2.10;1.00;;;;;;;5.58;95.11;152793.66;4922661;29;20855;-84
2022/12/27 14:47:25;;;;;;;2.80;2.30;;;;;;;5.52;93.93;152779.47;4993348;28;21027;-84
2022/12/27 14:51:01;;;;;;;3.30;1.70;;;;;;;5.49;94.21;152771.72;4983504;28;20461;-84
2022/12/27 14:54:22;;;;;;;2.40;1.70;;;;;;;5.42;95.08;152753.69;4920284;29;20428;-85
2022/12/27 14:57:28;;;;;;;2.53;1.30;;;;;;;5.34;94.64;152734.38;4931482;29;20883;-84
2022/12/27 15:00:15;;;;;;;2.30;1.90;;;;;;;5.32;95.66;152727.91;4983670;28;20453;-85
2022/12/27 15:03:15;;;;;;;2.20;1.40;;;;;;;5.23;97.83;152706.00;4984999;28;20461;-85
2022/12/27 15:06:05;;;;;;;1.37;1.10;;;;;;;5.21;97.15;152700.84;4989236;28;20453;-85
2022/12/27 15:08:58;;;;;;;2.80;1.27;;;;;;;5.16;96.49;152686.66;4991834;28;20428;-84
2022/12/27 15:11:56;;;;;;;1.53;0.80;;;;;;;5.10;96.31;152671.19;4985890;28;21043;-84
2022/12/27 15:14:54;;;;;;;2.70;1.20;;;;;;;5.08;97.19;152667.34;4991915;28;20910;-85